Time;durP1;ratioP1;P1;durP2;ratioP2;P2;SDS_P1;SDS_P2;PMS_P1;PMS_P2;Temp;Humidity;BMP_temperature;BMP_pressure;BME280_temperature;BME280_humidity;BME280_pressure;Samples;Min_cycle;Max_cycle;Signal;HPM_P1;HPM_P2
2021/08/24 00:00:20;;;;;;;;;10.25;9.00;;;;;20.55;58.92;101851.53;5059104;28;48277;-53
2021/08/24 00:02:46;;;;;;;;;7.00;7.00;;;;;20.56;58.95;101854.16;5039733;28;45235;-52
2021/08/24 00:05:18;;;;;;;;;8.00;8.00;;;;;20.57;58.54;101850.50;5056041;28;45541;-51
2021/08/24 00:07:43;;;;;;;;;9.00;9.00;;;;;20.56;58.44;101847.88;5057918;28;45365;-54
2021/08/24 00:10:09;;;;;;;;;11.75;10.75;;;;;20.56;58.97;101847.88;5061230;27;47204;-53
2021/08/24 00:12:35;;;;;;;;;9.25;8.00;;;;;20.54;58.64;101847.94;5059565;28;45777;-53
2021/08/24 00:15:02;;;;;;;;;9.00;9.00;;;;;20.54;59.20;101845.25;5057892;28;45439;-51
2021/08/24 00:17:27;;;;;;;;;11.25;11.25;;;;;20.52;59.06;101844.47;5057582;28;45587;-53
2021/08/24 00:19:52;;;;;;;;;8.25;8.25;;;;;20.49;59.04;101838.34;5062186;27;47957;-54
2021/08/24 00:22:18;;;;;;;;;13.00;12.00;;;;;20.48;59.09;101841.97;5055785;28;46611;-54
2021/08/24 00:24:44;;;;;;;;;11.75;11.75;;;;;20.46;59.44;101833.97;5054211;28;45413;-52
2021/08/24 00:27:09;;;;;;;;;9.00;9.00;;;;;20.45;59.50;101834.00;5058307;27;45382;-52
2021/08/24 00:29:35;;;;;;;;;8.00;8.00;;;;;20.43;59.43;101833.19;5051410;28;48985;-54
2021/08/24 00:32:00;;;;;;;;;9.75;9.75;;;;;20.44;59.27;101834.94;5051009;28;46242;-53
2021/08/24 00:34:25;;;;;;;;;10.33;10.33;;;;;20.41;59.09;101829.66;5081701;27;45437;-53
2021/08/24 00:36:51;;;;;;;;;12.00;12.00;;;;;20.40;59.33;101828.78;5056562;28;45819;-53
2021/08/24 00:39:16;;;;;;;;;11.75;11.75;;;;;20.37;59.57;101831.63;5086488;27;48125;-53
2021/08/24 00:41:42;;;;;;;;;11.25;10.25;;;;;20.35;59.61;101830.84;5056955;28;45381;-52
2021/08/24 00:44:08;;;;;;;;;12.50;11.50;;;;;20.35;59.51;101827.25;5057957;28;45480;-53
2021/08/24 00:46:44;;;;;;;;;12.00;12.00;;;;;20.34;59.52;101839.00;5057598;28;45417;-55
2021/08/24 00:49:21;;;;;;;;;13.75;13.50;;;;;20.32;59.41;101835.47;5054935;28;48495;-53
2021/08/24 00:51:53;;;;;;;;;10.25;10.25;;;;;20.29;59.58;101836.47;5059564;28;45800;-53
2021/08/24 00:54:22;;;;;;;;;11.33;10.67;;;;;20.28;59.96;101830.22;5056570;28;45413;-51
2021/08/24 00:56:55;;;;;;;;;14.25;13.00;;;;;20.27;60.22;101833.84;5060941;28;45613;-53
2021/08/24 00:59:20;;;;;;;;;11.25;10.75;;;;;20.26;59.81;101825.84;5067178;28;48129;-49
2021/08/24 01:01:47;;;;;;;;;11.50;11.50;;;;;20.24;60.07;101825.03;5059890;28;45609;-51
2021/08/24 01:04:14;;;;;;;;;10.00;10.00;;;;;20.20;60.27;101821.63;5075613;28;45290;-54
2021/08/24 01:06:51;;;;;;;;;10.00;9.75;;;;;20.19;59.90;101822.53;5056859;28;45461;-51
2021/08/24 01:09:51;;;;;;;;;11.67;10.67;;;;;20.18;60.22;101825.28;5059564;28;46959;-52
2021/08/24 01:12:31;;;;;;;;;10.33;10.33;;;;;20.15;60.44;101825.44;5057951;28;45610;-54
2021/08/24 01:15:05;;;;;;;;;13.33;12.00;;;;;20.11;60.03;101811.22;5068920;28;45536;-54
2021/08/24 01:17:40;;;;;;;;;13.75;12.50;;;;;20.10;60.26;101816.69;5050717;28;45409;-53
2021/08/24 01:20:25;;;;;;;;;12.50;11.50;;;;;20.10;60.45;101816.69;5060264;28;48137;-54
2021/08/24 01:23:11;;;;;;;;;11.00;11.00;;;;;20.07;60.57;101814.97;5051066;28;45520;-54
2021/08/24 01:26:00;;;;;;;;;13.25;11.00;;;;;20.05;60.47;101810.59;5089608;27;45362;-52
2021/08/24 01:28:38;;;;;;;;;14.00;11.33;;;;;20.03;60.62;101805.28;5050939;28;45441;-53
2021/08/24 01:31:25;;;;;;;;;11.50;10.50;;;;;20.00;60.84;101808.13;5061404;28;47311;-53
2021/08/24 01:34:24;;;;;;;;;12.75;12.75;;;;;19.99;60.68;101814.47;5071591;27;45349;-54
2021/08/24 01:37:02;;;;;;;;;10.00;9.67;;;;;19.97;60.98;101814.53;5052295;28;45288;-53
2021/08/24 01:39:39;;;;;;;;;11.33;10.67;;;;;19.96;60.85;101810.09;5059729;28;45706;-52
2021/08/24 01:42:19;;;;;;;;;11.25;9.00;;;;;19.95;61.10;101807.47;5056569;28;46883;-54
2021/08/24 01:45:08;;;;;;;;;12.25;12.00;;;;;19.95;60.83;101810.16;5058726;28;45636;-53
2021/08/24 01:47:42;;;;;;;;;10.33;10.33;;;;;19.95;60.99;101808.34;5062235;28;45410;-53
2021/08/24 01:50:23;;;;;;;;;12.00;12.00;;;;;19.96;61.17;101812.78;5061931;28;45638;-53
2021/08/24 01:52:56;;;;;;;;;13.50;13.50;;;;;19.97;61.29;101808.28;5060974;28;48254;-52
2021/08/24 01:55:30;;;;;;;;;13.00;13.00;;;;;19.96;61.32;101809.22;5061640;28;45397;-50
2021/08/24 01:58:03;;;;;;;;;16.00;14.75;;;;;19.98;60.77;101804.63;5056496;28;46251;-54
2021/08/24 02:00:33;;;;;;;;;13.50;13.50;;;;;19.98;61.36;101805.50;5060463;28;45417;-52
2021/08/24 02:03:04;;;;;;;;;14.50;13.50;;;;;19.99;61.32;101801.00;5060154;28;47164;-54
2021/08/24 02:05:37;;;;;;;;;13.00;11.75;;;;;20.01;60.88;101806.31;5055620;28;45429;-54
2021/08/24 02:08:12;;;;;;;;;14.50;13.25;;;;;19.99;61.32;101799.16;5064092;28;45495;-54
2021/08/24 02:10:40;;;;;;;;;13.25;10.00;;;;;20.01;61.25;101812.56;5059962;28;45452;-54
2021/08/24 02:13:08;;;;;;;;;11.75;11.75;;;;;20.01;61.37;101809.00;5059767;28;47199;-52
2021/08/24 02:15:42;;;;;;;;;12.00;11.00;;;;;20.03;61.12;101809.81;5062160;28;45980;-52
2021/08/24 02:18:14;;;;;;;;;15.50;15.00;;;;;20.04;61.46;101817.81;5059269;28;45337;-52
2021/08/24 02:20:44;;;;;;;;;12.50;12.00;;;;;20.06;61.24;101806.97;5053380;28;45427;-53
2021/08/24 02:23:23;;;;;;;;;15.25;15.25;;;;;20.10;61.17;101814.88;5057565;28;46103;-52
2021/08/24 02:25:52;;;;;;;;;14.50;14.50;;;;;20.07;61.30;101811.41;5058900;28;46021;-53
2021/08/24 02:28:43;;;;;;;;;18.50;14.75;;;;;20.06;60.84;101812.34;5066166;28;45382;-53
2021/08/24 02:31:21;;;;;;;;;17.50;16.50;;;;;20.05;61.42;101814.19;5053802;28;45419;-53
2021/08/24 02:34:17;;;;;;;;;18.50;16.50;;;;;20.05;61.09;101816.00;5056723;28;47775;-54
2021/08/24 02:37:07;;;;;;;;;14.67;14.33;;;;;20.05;61.50;101814.19;5051287;28;45337;-53
2021/08/24 02:39:49;;;;;;;;;18.00;17.25;;;;;20.06;61.19;101815.06;5057463;28;45584;-53
2021/08/24 02:42:34;;;;;;;;;18.75;16.75;;;;;20.06;61.41;101817.75;5058166;28;45398;-49
2021/08/24 02:45:11;;;;;;;;;16.25;14.25;;;;;20.06;61.44;101815.06;5058722;28;46942;-53
2021/08/24 02:47:39;;;;;;;;;16.75;16.75;;;;;20.05;61.26;101814.19;5053549;28;46218;-53
2021/08/24 02:50:06;;;;;;;;;19.25;18.25;;;;;20.05;61.11;101816.88;5057150;28;45503;-52
2021/08/24 02:52:34;;;;;;;;;19.75;18.75;;;;;20.04;61.26;101814.25;5054471;28;45805;-54
2021/08/24 02:55:00;;;;;;;;;19.00;18.25;;;;;20.02;61.66;101813.44;5056922;28;48386;-52
2021/08/24 02:57:25;;;;;;;;;21.75;20.00;;;;;20.01;61.33;101809.00;5058986;28;45302;-53
2021/08/24 02:59:51;;;;;;;;;20.00;19.00;;;;;19.99;61.38;101818.03;5058456;28;45396;-52
2021/08/24 03:02:17;;;;;;;;;20.00;18.75;;;;;19.99;61.54;101812.63;5056680;28;45365;-54
2021/08/24 03:04:42;;;;;;;;;22.00;20.00;;;;;19.99;61.61;101809.06;5057857;28;47445;-54
2021/08/24 03:07:14;;;;;;;;;20.50;20.50;;;;;19.99;61.98;101817.16;5058615;28;45431;-54
2021/08/24 03:09:41;;;;;;;;;23.75;20.00;;;;;19.97;61.82;101811.84;5058703;28;45400;-53
2021/08/24 03:12:26;;;;;;;;;21.00;21.00;;;;;19.96;61.72;101804.69;5085814;27;45433;-51
2021/08/24 03:14:59;;;;;;;;;20.50;19.75;;;;;19.95;61.62;101807.47;5055980;28;47417;-54
2021/08/24 03:17:40;;;;;;;;;26.75;25.50;;;;;19.95;61.63;101804.78;5078261;27;45484;-50
2021/08/24 03:20:08;;;;;;;;;22.75;21.75;;;;;19.95;61.90;101804.78;5057502;28;45381;-54
2021/08/24 03:22:35;;;;;;;;;21.50;19.75;;;;;19.94;61.70;101800.28;5056300;28;45357;-52
2021/08/24 03:25:03;;;;;;;;;25.75;23.25;;;;;19.93;62.11;101802.13;5057490;28;48329;-53
2021/08/24 03:27:33;;;;;;;;;28.50;25.50;;;;;19.92;61.65;101800.38;5055705;28;45464;-52
2021/08/24 03:30:03;;;;;;;;;24.50;23.00;;;;;19.89;61.92;101799.63;5059497;28;46610;-53
2021/08/24 03:32:29;;;;;;;;;25.00;24.75;;;;;19.84;62.04;101805.22;5061990;28;45482;-53
2021/08/24 03:34:54;;;;;;;;;30.50;26.75;;;;;19.85;62.27;101803.41;5057890;28;47106;-51
2021/08/24 03:37:20;;;;;;;;;27.25;25.00;;;;;19.85;62.32;101803.41;5058000;28;45682;-52
2021/08/24 03:39:46;;;;;;;;;25.50;25.25;;;;;19.83;62.24;101803.47;5064526;28;45485;-55
2021/08/24 03:42:11;;;;;;;;;25.50;24.50;;;;;19.81;62.42;101808.03;5063075;28;45544;-53
2021/08/24 03:44:37;;;;;;;;;29.25;26.00;;;;;19.80;62.48;101797.31;5059590;28;47193;-54
2021/08/24 03:47:02;;;;;;;;;28.00;28.00;;;;;19.78;62.17;101804.59;5058656;28;45612;-51
2021/08/24 03:49:28;;;;;;;;;28.25;28.00;;;;;19.79;62.26;101804.53;5039710;28;45481;-54
2021/08/24 03:51:53;;;;;;;;;28.75;26.75;;;;;19.78;62.59;101802.78;5060797;28;45438;-53
2021/08/24 03:54:19;;;;;;;;;23.75;21.00;;;;;19.77;62.30;101802.84;5062117;28;47943;-52
2021/08/24 03:56:45;;;;;;;;;27.75;27.25;;;;;19.76;62.26;101804.66;5056893;28;45370;-52
2021/08/24 03:59:11;;;;;;;;;26.25;24.50;;;;;19.78;62.55;101801.91;5060092;28;45480;-52
2021/08/24 04:01:36;;;;;;;;;33.75;28.75;;;;;19.79;62.64;101807.22;5060520;28;45321;-53
2021/08/24 04:04:02;;;;;;;;;24.00;23.00;;;;;19.81;62.57;101799.06;5058345;28;47092;-54
2021/08/24 04:06:27;;;;;;;;;31.50;28.75;;;;;19.83;62.66;101808.00;5057754;28;45480;-53
2021/08/24 04:08:53;;;;;;;;;25.50;25.50;;;;;19.81;62.47;101805.34;5052502;28;45380;-53
2021/08/24 04:11:19;;;;;;;;;28.00;28.00;;;;;19.83;62.31;101805.31;5049083;28;45417;-52
2021/08/24 04:13:44;;;;;;;;;31.00;27.75;;;;;19.84;62.61;101807.06;5056999;28;47367;-54
2021/08/24 04:16:12;;;;;;;;;29.75;28.00;;;;;19.83;62.37;101803.47;5058047;28;45889;-51
2021/08/24 04:18:38;;;;;;;;;27.75;27.00;;;;;19.83;62.53;101811.56;5054939;28;45708;-53
2021/08/24 04:21:10;;;;;;;;;26.75;25.50;;;;;19.83;62.48;101808.88;5056514;28;45739;-53
2021/08/24 04:23:37;;;;;;;;;27.25;27.25;;;;;19.80;62.92;101808.09;5060224;28;48390;-52
2021/08/24 04:26:03;;;;;;;;;28.00;26.50;;;;;19.78;62.06;101821.63;5056514;28;46333;-54
2021/08/24 04:28:28;;;;;;;;;30.25;27.00;;;;;19.78;62.56;101821.63;5061794;28;45463;-54
2021/08/24 04:30:55;;;;;;;;;31.75;30.00;;;;;19.80;62.47;101824.25;5054915;28;45577;-52
2021/08/24 04:33:22;;;;;;;;;25.00;24.50;;;;;19.80;62.88;101822.44;5061150;28;46714;-53
2021/08/24 04:35:57;;;;;;;;;25.75;25.75;;;;;19.83;62.66;101824.16;5085295;27;45947;-53
2021/08/24 04:38:22;;;;;;;;;29.50;27.75;;;;;19.83;62.55;101827.72;5057787;28;46425;-54
2021/08/24 04:40:49;;;;;;;;;30.50;28.75;;;;;19.81;62.45;101828.69;5061545;28;45674;-54
2021/08/24 04:43:14;;;;;;;;;30.50;27.75;;;;;19.78;62.25;101823.44;5060161;28;47963;-54
2021/08/24 04:45:40;;;;;;;;;30.50;28.50;;;;;19.75;62.59;101827.16;5060893;28;45587;-54
2021/08/24 04:48:06;;;;;;;;;29.50;27.75;;;;;19.74;62.42;101830.81;5060831;28;45642;-52
2021/08/24 04:50:32;;;;;;;;;30.00;27.50;;;;;19.71;62.72;101825.56;5059206;28;45424;-52
2021/08/24 04:52:58;;;;;;;;;30.00;30.00;;;;;19.70;62.81;101826.50;5058066;28;48232;-53
2021/08/24 04:55:24;;;;;;;;;34.75;31.50;;;;;19.70;62.81;101834.56;5064436;28;45337;-53
2021/08/24 04:57:49;;;;;;;;;31.00;29.00;;;;;19.69;62.59;101833.69;5064430;28;45429;-53
2021/08/24 05:00:15;;;;;;;;;33.00;30.25;;;;;19.70;62.40;101829.19;5067926;28;45282;-54
2021/08/24 05:02:41;;;;;;;;;26.75;26.75;;;;;19.69;62.58;101838.16;5056888;28;47264;-52
2021/08/24 05:05:07;;;;;;;;;33.75;28.75;;;;;19.67;62.99;101837.38;5060681;28;45798;-53
2021/08/24 05:07:32;;;;;;;;;36.75;33.50;;;;;19.67;62.73;101842.75;5040233;28;45589;-54
2021/08/24 05:09:58;;;;;;;;;29.25;29.25;;;;;19.66;62.42;101846.38;5062286;28;45614;-53
2021/08/24 05:12:23;;;;;;;;;36.50;31.00;;;;;19.65;62.87;101844.63;5060043;28;47094;-53
2021/08/24 05:14:49;;;;;;;;;36.00;32.75;;;;;19.66;62.95;101838.31;5060387;28;45328;-53
2021/08/24 05:17:14;;;;;;;;;29.50;28.75;;;;;19.66;62.95;101835.63;5062740;28;45459;-54
2021/08/24 05:19:40;;;;;;;;;27.50;27.50;;;;;19.65;62.71;101841.94;5068840;28;45847;-54
2021/08/24 05:22:05;;;;;;;;;32.75;27.50;;;;;19.67;62.68;101843.63;5064817;28;47347;-54
2021/08/24 05:24:34;;;;;;;;;31.75;29.00;;;;;19.69;62.80;101843.56;5059089;28;45560;-52
2021/08/24 05:27:00;;;;;;;;;35.25;30.00;;;;;19.69;62.27;101844.47;5054746;28;45377;-53
2021/08/24 05:29:27;;;;;;;;;28.50;27.25;;;;;19.68;62.65;101844.50;5061642;27;45236;-53
2021/08/24 05:31:52;;;;;;;;;32.50;31.75;;;;;19.67;62.76;101846.31;5061717;28;48551;-54
2021/08/24 05:34:18;;;;;;;;;31.25;28.50;;;;;19.68;62.52;101847.19;5057758;28;45519;-54
2021/08/24 05:36:43;;;;;;;;;35.00;30.50;;;;;19.65;62.31;101845.50;5060894;28;45430;-54
2021/08/24 05:39:09;;;;;;;;;26.75;26.75;;;;;19.65;62.38;101852.72;5062645;28;45547;-54
2021/08/24 05:41:36;;;;;;;;;28.50;27.50;;;;;19.61;62.42;101857.38;5060134;28;47898;-54
2021/08/24 05:44:02;;;;;;;;;27.00;27.00;;;;;19.60;62.58;101852.91;5064075;28;45961;-52
2021/08/24 05:46:27;;;;;;;;;29.00;27.75;;;;;19.58;62.45;101857.50;5060668;28;46353;-53
2021/08/24 05:48:53;;;;;;;;;30.75;28.50;;;;;19.57;62.55;101853.06;5062865;28;45685;-52
2021/08/24 05:51:21;;;;;;;;;29.00;28.75;;;;;19.56;62.44;101853.97;5060840;28;47381;-54
2021/08/24 05:53:46;;;;;;;;;29.75;27.75;;;;;19.56;62.46;101851.28;5075098;27;45940;-54
2021/08/24 05:56:24;;;;;;;;;23.00;22.50;;;;;19.54;62.49;101850.44;5058328;28;45393;-53
2021/08/24 05:58:51;;;;;;;;;26.00;24.50;;;;;19.53;62.14;101851.38;5061045;28;45460;-53
2021/08/24 06:01:29;;;;;;;;;27.75;24.50;;;;;19.53;62.70;101855.88;5061680;28;46351;-54
2021/08/24 06:03:56;;;;;;;;;26.00;26.00;;;;;19.51;62.30;101863.16;5056945;28;45348;-54
2021/08/24 06:06:23;;;;;;;;;27.25;26.00;;;;;19.48;62.71;101856.09;5059724;28;45461;-53
2021/08/24 06:08:49;;;;;;;;;32.50;29.25;;;;;19.48;62.69;101864.16;5059890;28;45556;-50
2021/08/24 06:11:26;;;;;;;;;29.25;26.25;;;;;19.47;62.90;101861.53;5072802;27;45901;-51
2021/08/24 06:13:53;;;;;;;;;28.75;27.00;;;;;19.49;62.64;101865.03;5059382;28;45446;-52
2021/08/24 06:16:18;;;;;;;;;24.75;24.00;;;;;19.47;62.55;101867.78;5062132;28;45410;-51
2021/08/24 06:18:44;;;;;;;;;29.25;28.00;;;;;19.46;62.55;101865.16;5056899;28;45427;-51
2021/08/24 06:21:11;;;;;;;;;28.00;26.50;;;;;19.46;62.57;101868.72;5062347;28;47631;-52
2021/08/24 06:23:37;;;;;;;;;31.00;27.50;;;;;19.47;62.41;101867.78;5060012;28;45892;-51
2021/08/24 06:26:02;;;;;;;;;29.25;27.50;;;;;19.47;62.40;101867.78;5059934;28;45404;-49
2021/08/24 06:28:28;;;;;;;;;22.25;22.25;;;;;19.45;62.71;101856.22;5064355;28;45486;-50
2021/08/24 06:30:54;;;;;;;;;31.50;29.50;;;;;19.46;62.51;101860.66;5065256;28;47551;-52
2021/08/24 06:33:24;;;;;;;;;26.75;24.75;;;;;19.49;62.91;101860.53;5060501;27;45492;-53
2021/08/24 06:35:49;;;;;;;;;22.50;22.00;;;;;19.50;62.69;101870.34;5057905;28;45250;-53
2021/08/24 06:38:15;;;;;;;;;23.00;23.00;;;;;19.51;62.51;101863.16;5058974;28;45583;-53
2021/08/24 06:40:40;;;;;;;;;24.50;24.50;;;;;19.53;62.83;101863.97;5055774;28;48249;-51
2021/08/24 06:43:06;;;;;;;;;26.75;23.75;;;;;19.56;62.71;101861.16;5059157;28;45460;-53
2021/08/24 06:45:32;;;;;;;;;26.00;26.00;;;;;19.59;62.58;101869.16;5062686;28;45353;-53
2021/08/24 06:47:58;;;;;;;;;25.00;24.25;;;;;19.60;62.58;101860.13;5064398;28;45810;-53
2021/08/24 06:50:25;;;;;;;;;30.50;27.75;;;;;19.61;62.68;101864.56;5062145;28;46973;-53
2021/08/24 06:52:51;;;;;;;;;26.50;24.75;;;;;19.64;62.61;101859.03;5060986;27;45956;-54
2021/08/24 06:55:18;;;;;;;;;28.00;27.00;;;;;19.68;62.58;101860.66;5059130;28;45377;-53
2021/08/24 06:57:44;;;;;;;;;29.50;26.75;;;;;19.71;62.13;101870.47;5073225;27;45955;-53
2021/08/24 07:00:16;;;;;;;;;33.00;32.00;;;;;19.74;62.29;101867.63;5058726;28;45599;-53
2021/08/24 07:02:42;;;;;;;;;26.75;25.75;;;;;19.76;62.56;101872.00;5052155;28;45425;-52
2021/08/24 07:05:09;;;;;;;;;27.00;27.00;;;;;19.77;62.41;101873.75;5052266;28;45472;-53
2021/08/24 07:07:35;;;;;;;;;29.00;26.50;;;;;19.78;62.55;101867.44;5053784;28;45460;-54
2021/08/24 07:10:01;;;;;;;;;28.50;28.50;;;;;19.80;62.23;101865.53;5054998;28;48084;-54
2021/08/24 07:12:27;;;;;;;;;31.00;29.50;;;;;19.83;61.83;101873.53;5073035;27;45472;-53
2021/08/24 07:14:52;;;;;;;;;26.75;26.75;;;;;19.84;62.63;101875.28;5058727;28;45369;-52
2021/08/24 07:17:18;;;;;;;;;29.50;29.25;;;;;19.87;62.08;101874.25;5058585;28;45397;-51
2021/08/24 07:19:44;;;;;;;;;32.50;31.25;;;;;19.87;62.12;101867.06;5058487;28;47638;-52
2021/08/24 07:22:10;;;;;;;;;35.00;32.50;;;;;19.88;62.51;101862.53;5051036;28;45719;-51
2021/08/24 07:24:35;;;;;;;;;29.50;27.00;;;;;19.91;62.23;101867.78;5082917;27;45488;-53
2021/08/24 07:27:01;;;;;;;;;25.00;25.00;;;;;19.94;62.56;101868.53;5049934;28;45652;-50
2021/08/24 07:29:26;;;;;;;;;34.00;30.00;;;;;19.96;61.96;101861.28;5058343;28;45702;-52
2021/08/24 07:31:52;;;;;;;;;26.00;26.00;;;;;19.98;61.86;101870.16;5055297;28;45351;-50
2021/08/24 07:34:17;;;;;;;;;28.75;26.50;;;;;20.00;62.36;101867.41;5057782;28;45968;-51
2021/08/24 07:36:43;;;;;;;;;30.00;28.25;;;;;20.03;61.87;101866.41;5053807;28;45642;-51
2021/08/24 07:39:09;;;;;;;;;28.50;26.75;;;;;20.07;61.99;101868.00;5057180;28;47341;-51
2021/08/24 07:41:35;;;;;;;;;29.00;26.25;;;;;20.09;61.96;101858.94;5058412;28;45491;-52
2021/08/24 07:44:01;;;;;;;;;33.25;31.50;;;;;20.13;62.04;101857.84;5057703;28;45417;-52
2021/08/24 07:46:26;;;;;;;;;34.00;29.75;;;;;20.18;61.72;101866.59;5058625;28;45519;-53
2021/08/24 07:48:52;;;;;;;;;27.75;27.50;;;;;20.21;61.57;101866.50;5057022;28;47767;-53
2021/08/24 07:51:20;;;;;;;;;30.25;29.50;;;;;20.24;61.53;101862.78;5056880;28;45620;-53
2021/08/24 07:53:47;;;;;;;;;24.00;24.00;;;;;20.27;61.68;101859.94;5073947;28;45659;-51
2021/08/24 07:56:12;;;;;;;;;25.25;24.50;;;;;20.31;61.29;101863.38;5056326;28;45616;-53
2021/08/24 07:58:38;;;;;;;;;28.25;24.75;;;;;20.33;61.28;101858.78;5057821;28;47777;-53
2021/08/24 08:01:03;;;;;;;;;21.50;21.50;;;;;20.34;61.46;101864.13;5049761;28;46234;-52
2021/08/24 08:03:29;;;;;;;;;23.50;22.50;;;;;20.35;60.86;101863.19;5049999;28;45429;-52
2021/08/24 08:05:54;;;;;;;;;24.00;22.25;;;;;20.38;61.57;101859.47;5058520;28;45383;-52
2021/08/24 08:08:20;;;;;;;;;24.00;21.25;;;;;20.41;60.94;101851.25;5057706;28;47175;-51
2021/08/24 08:10:45;;;;;;;;;29.50;26.25;;;;;20.44;61.28;101857.41;5057614;28;45366;-52
2021/08/24 08:13:11;;;;;;;;;24.00;24.00;;;;;20.48;61.05;101860.84;5056262;28;45854;-52
2021/08/24 08:15:37;;;;;;;;;18.25;18.25;;;;;20.51;60.96;101860.72;5058786;28;45454;-55
2021/08/24 08:18:06;;;;;;;;;22.50;21.25;;;;;20.55;60.81;101867.72;5048479;28;48279;-54
2021/08/24 08:20:32;;;;;;;;;21.50;20.25;;;;;20.56;60.13;101859.53;5058255;28;45427;-53
2021/08/24 08:22:59;;;;;;;;;21.25;20.75;;;;;20.59;60.16;101860.38;5055961;28;45401;-53
2021/08/24 08:25:25;;;;;;;;;19.50;17.25;;;;;20.63;60.58;101867.38;5057994;28;45506;-54
2021/08/24 08:27:50;;;;;;;;;19.00;19.00;;;;;20.65;60.45;101866.34;5057331;28;47492;-54
2021/08/24 08:30:16;;;;;;;;;18.50;18.25;;;;;20.69;60.37;101856.28;5057468;28;45314;-54
2021/08/24 08:32:43;;;;;;;;;17.25;16.50;;;;;20.72;60.16;101857.03;5048276;28;45459;-53
2021/08/24 08:35:10;;;;;;;;;17.25;17.25;;;;;20.75;60.22;101856.91;5047692;28;45729;-51
2021/08/24 08:37:36;;;;;;;;;18.50;17.75;;;;;20.81;59.79;101867.41;5057632;28;47291;-53
2021/08/24 08:40:06;;;;;;;;;17.50;17.50;;;;;20.84;59.51;101853.78;5050445;28;45471;-52
2021/08/24 08:42:52;;;;;;;;;23.25;18.75;;;;;20.89;59.79;101860.78;5057729;28;45615;-51
2021/08/24 08:45:39;;;;;;;;;20.00;17.75;;;;;20.92;60.02;101861.50;5058096;28;45334;-53
2021/08/24 08:48:22;;;;;;;;;17.00;17.00;;;;;20.97;59.56;101861.31;5049983;28;47189;-54
2021/08/24 08:50:52;;;;;;;;;15.75;15.75;;;;;20.98;59.46;101866.63;5052120;28;46051;-52
2021/08/24 08:53:21;;;;;;;;;17.00;16.25;;;;;21.02;58.86;101862.84;5057444;28;45483;-52
2021/08/24 08:55:57;;;;;;;;;16.00;16.00;;;;;21.05;58.75;101856.41;5058098;28;45455;-54
2021/08/24 08:58:47;;;;;;;;;12.75;12.75;;;;;21.08;58.95;101862.53;5040390;28;47432;-54
2021/08/24 09:01:20;;;;;;;;;14.50;13.75;;;;;21.11;58.38;101859.72;5037898;28;45940;-54
2021/08/24 09:04:01;;;;;;;;;14.00;14.00;;;;;21.16;58.51;101864.88;5055821;28;45436;-54
2021/08/24 09:06:27;;;;;;;;;16.50;15.00;;;;;21.21;57.93;101859.25;5057405;27;45241;-52
2021/08/24 09:08:57;;;;;;;;;15.50;13.00;;;;;21.23;57.74;101863.66;5051964;27;47898;-50
2021/08/24 09:11:30;;;;;;;;;11.25;11.25;;;;;21.25;57.32;101856.38;5058735;28;45794;-53
2021/08/24 09:14:03;;;;;;;;;12.25;12.00;;;;;21.28;57.50;101856.22;5061141;28;45426;-50
2021/08/24 09:16:36;;;;;;;;;9.00;9.00;;;;;21.30;57.18;101851.63;5060779;28;45337;-52
2021/08/24 09:19:10;;;;;;;;;14.75;13.00;;;;;21.34;57.09;101850.53;5059556;28;47403;-50
2021/08/24 09:21:41;;;;;;;;;10.33;9.00;;;;;21.40;57.28;101854.75;5059792;28;46195;-53
2021/08/24 09:24:19;;;;;;;;;10.00;9.00;;;;;21.42;56.61;101842.91;5074607;28;45378;-53
2021/08/24 09:26:48;;;;;;;;;9.33;9.33;;;;;21.44;56.41;101851.81;5052167;28;45385;-49
2021/08/24 09:29:17;;;;;;;;;10.00;9.00;;;;;21.48;56.15;101852.56;5075921;28;48175;-53
2021/08/24 09:31:44;;;;;;;;;11.33;11.33;;;;;21.50;56.16;101853.34;5063088;28;45559;-52
2021/08/24 09:34:16;;;;;;;;;10.25;10.25;;;;;21.55;56.41;101847.72;5066487;28;45377;-52
2021/08/24 09:36:41;;;;;;;;;9.67;9.33;;;;;21.57;55.83;101848.50;5064799;28;45374;-52
2021/08/24 09:39:07;;;;;;;;;9.00;9.00;;;;;21.59;55.78;101846.59;5052734;28;47353;-52
2021/08/24 09:41:39;;;;;;;;;9.00;9.00;;;;;21.62;55.35;101841.06;5053919;28;45498;-54
2021/08/24 09:44:34;;;;;;;;;8.25;8.25;;;;;21.64;55.05;101837.34;5069172;28;45340;-53
2021/08/24 09:47:29;;;;;;;;;8.00;8.00;;;;;21.68;55.11;101832.66;5054730;27;45826;-51
2021/08/24 09:50:23;;;;;;;;;9.00;9.00;;;;;21.73;54.87;101830.59;5047743;28;48623;-52
2021/08/24 09:52:52;;;;;;;;;8.50;8.00;;;;;21.80;55.06;101832.03;5063288;28;45801;-54
2021/08/24 09:55:22;;;;;;;;;10.00;10.00;;;;;21.85;54.60;101834.47;5064493;28;45544;-51
2021/08/24 09:57:55;;;;;;;;;10.00;8.50;;;;;21.92;55.21;101833.22;5066063;28;45343;-53
2021/08/24 10:00:23;;;;;;;;;9.25;9.25;;;;;21.98;54.41;101825.69;5080388;27;46255;-53
2021/08/24 10:03:00;;;;;;;;;9.00;8.33;;;;;22.08;53.74;101825.22;5059779;28;46106;-53
2021/08/24 10:05:35;;;;;;;;;8.00;8.00;;;;;22.18;53.53;101812.97;5062512;28;45728;-54
2021/08/24 10:08:24;;;;;;;;;6.75;6.75;;;;;22.29;52.98;101810.59;5068656;28;45591;-49
2021/08/24 10:11:00;;;;;;;;;7.50;7.50;;;;;22.36;53.07;101820.13;5064990;28;47176;-53
2021/08/24 10:13:35;;;;;;;;;5.25;5.25;;;;;22.42;52.22;101816.22;5092901;27;45264;-52
2021/08/24 10:16:26;;;;;;;;;5.33;5.33;;;;;22.45;51.63;101822.31;5089461;27;45480;-55
2021/08/24 10:19:07;;;;;;;;;6.00;6.00;;;;;22.53;51.52;101824.63;5065014;28;45579;-56
2021/08/24 10:21:55;;;;;;;;;7.75;7.75;;;;;22.61;51.10;101812.44;5067892;27;47504;-52
2021/08/24 10:24:26;;;;;;;;;5.67;5.67;;;;;22.69;50.61;101817.41;5066749;27;45393;-51
2021/08/24 10:26:55;;;;;;;;;6.50;6.50;;;;;22.75;49.77;101814.38;5068764;27;45542;-52
2021/08/24 10:29:27;;;;;;;;;6.33;6.00;;;;;22.87;49.73;101807.47;5059482;27;45428;-53
2021/08/24 10:32:05;;;;;;;;;7.00;7.00;;;;;22.95;49.52;101815.13;5073204;28;46439;-55
2021/08/24 10:34:48;;;;;;;;;7.00;7.00;;;;;23.06;49.15;101791.91;5063440;28;45441;-53
2021/08/24 10:37:26;;;;;;;;;8.00;8.00;;;;;23.18;48.56;101806.59;5086933;27;45553;-53
2021/08/24 10:40:08;;;;;;;;;5.00;4.00;;;;;23.22;47.82;101799.16;5061457;27;45489;-51
2021/08/24 10:42:37;;;;;;;;;13.00;12.75;;;;;23.27;47.18;101800.66;5054402;28;47525;-54
2021/08/24 10:45:24;;;;;;;;;7.00;7.00;;;;;23.28;46.92;101805.09;5058229;28;45368;-55
2021/08/24 10:47:54;;;;;;;;;7.67;6.00;;;;;23.28;46.57;101793.41;5064510;28;45271;-55
2021/08/24 10:50:24;;;;;;;;;4.33;4.33;;;;;23.28;46.50;101796.09;5055754;28;45665;-52
2021/08/24 10:53:02;;;;;;;;;6.00;6.00;;;;;23.30;46.13;101792.34;5058305;28;46939;-52
2021/08/24 10:55:33;;;;;;;;;5.00;5.00;;;;;23.29;45.23;101805.97;5059430;28;45313;-54
2021/08/24 10:58:21;;;;;;;;;6.00;6.00;;;;;23.29;45.79;101797.84;5060087;27;45674;-53
2021/08/24 11:00:57;;;;;;;;;4.00;4.00;;;;;23.33;45.34;101805.69;5059978;28;45442;-52
2021/08/24 11:03:48;;;;;;;;;6.00;6.00;;;;;23.36;45.52;101799.22;5058089;28;46207;-54
2021/08/24 11:06:33;;;;;;;;;6.00;6.00;;;;;23.42;45.06;101798.88;5056377;28;46163;-54
2021/08/24 11:09:30;;;;;;;;;4.33;4.33;;;;;23.59;44.95;101795.22;5061524;28;45445;-53
2021/08/24 11:12:02;;;;;;;;;5.33;5.33;;;;;23.72;44.80;101788.09;5049327;28;45458;-54
2021/08/24 11:14:48;;;;;;;;;3.00;3.00;;;;;23.87;44.90;101786.28;5054979;28;47184;-53
2021/08/24 11:17:37;;;;;;;;;5.67;5.67;;;;;23.98;43.51;101779.25;5059243;28;45243;-51
2021/08/24 11:20:19;;;;;;;;;5.00;5.00;;;;;24.01;43.66;101787.22;5056129;28;45366;-54
2021/08/24 11:23:21;;;;;;;;;5.00;5.00;;;;;24.01;43.65;101787.22;5050524;28;45476;-52
2021/08/24 11:25:50;;;;;;;;;4.67;4.67;;;;;24.07;43.44;101783.25;5055427;28;48529;-52
2021/08/24 11:28:36;;;;;;;;;6.00;6.00;;;;;24.08;43.57;101782.28;5063975;28;45434;-55